Time;durP1;ratioP1;P1;durP2;ratioP2;P2;SDS_P1;SDS_P2;PMS_P1;PMS_P2;Temp;Humidity;BMP_temperature;BMP_pressure;BME280_temperature;BME280_humidity;BME280_pressure;Samples;Min_cycle;Max_cycle;Signal;HPM_P1;HPM_P2
2022/07/28 00:00:56;;;;;;;5.12;3.65;;;;;;;;;;1747967;82;21032;-66
2022/07/28 00:03:21;;;;;;;5.30;3.70;;;;;;;;;;1746265;81;21017;-67
2022/07/28 00:05:48;;;;;;;5.03;4.00;;;;;;;;;;1752295;81;21073;-66
2022/07/28 00:08:15;;;;;;;4.65;3.52;;;;;;;;;;1754259;80;21091;-66
2022/07/28 00:10:41;;;;;;;5.00;3.80;;;;;;;;;;1754955;82;21068;-66
2022/07/28 00:13:07;;;;;;;5.78;3.80;;;;;;;;;;1755632;82;21539;-66
2022/07/28 00:15:34;;;;;;;5.15;4.20;;;;;;;;;;1755652;82;21052;-65
2022/07/28 00:18:02;;;;;;;6.40;3.62;;;;;;;;;;1754289;81;21500;-65
2022/07/28 00:20:29;;;;;;;5.28;3.77;;;;;;;;;;1753423;81;21503;-67
2022/07/28 00:22:56;;;;;;;5.28;3.72;;;;;;;;;;1717803;83;21195;-67
2022/07/28 00:25:22;;;;;;;5.70;3.80;;;;;;;;;;1689299;84;21010;-66
2022/07/28 00:27:48;;;;;;;4.28;3.20;;;;;;;;;;1755608;82;21025;-65
2022/07/28 00:30:14;;;;;;;5.08;3.72;;;;;;;;;;1754625;81;21572;-66
2022/07/28 00:32:43;;;;;;;5.30;4.20;;;;;;;;;;1755623;82;21013;-68
2022/07/28 00:35:08;;;;;;;5.72;4.33;;;;;;;;;;1755789;81;21611;-65
2022/07/28 00:37:35;;;;;;;6.70;3.85;;;;;;;;;;1755887;82;21312;-66
2022/07/28 00:40:01;;;;;;;7.72;4.00;;;;;;;;;;1754959;80;21076;-66
2022/07/28 00:42:28;;;;;;;5.12;3.58;;;;;;;;;;1755405;81;21040;-66
2022/07/28 00:44:54;;;;;;;5.45;4.45;;;;;;;;;;1756028;81;21074;-66
2022/07/28 00:47:21;;;;;;;5.08;3.92;;;;;;;;;;1755632;82;21072;-66
2022/07/28 00:49:49;;;;;;;5.67;3.77;;;;;;;;;;1755026;81;21058;-66
2022/07/28 00:52:17;;;;;;;5.72;4.05;;;;;;;;;;1755613;82;21084;-67
2022/07/28 00:54:43;;;;;;;5.08;3.75;;;;;;;;;;1755326;82;21032;-68
2022/07/28 00:57:09;;;;;;;6.83;4.58;;;;;;;;;;1756086;81;21064;-67
2022/07/28 00:59:35;;;;;;;6.08;4.33;;;;;;;;;;1755163;80;21064;-67
2022/07/28 01:04:52;;;;;;;5.03;4.00;;;;;;;;;;1709694;80;73112;-68
2022/07/28 01:07:20;;;;;;;6.03;3.55;;;;;;;;;;1760663;81;20960;-68
2022/07/28 01:10:07;;;;;;;5.03;4.22;;;;;;;;;;1753605;80;21056;-68
2022/07/28 01:12:38;;;;;;;5.00;4.00;;;;;;;;;;1754170;80;21079;-68
2022/07/28 01:15:09;;;;;;;5.67;4.08;;;;;;;;;;1795303;80;21088;-67
2022/07/28 01:17:41;;;;;;;5.80;4.58;;;;;;;;;;1794812;80;21035;-67
2022/07/28 01:20:26;;;;;;;6.42;3.92;;;;;;;;;;1793962;79;21020;-67
2022/07/28 01:23:13;;;;;;;5.35;3.98;;;;;;;;;;1794760;78;21128;-67
2022/07/28 01:25:54;;;;;;;5.00;3.62;;;;;;;;;;1795083;80;21072;-66
2022/07/28 01:28:39;;;;;;;5.22;3.70;;;;;;;;;;1795304;80;21048;-67
2022/07/28 01:31:05;;;;;;;6.00;3.80;;;;;;;;;;1794697;78;21092;-68
2022/07/28 01:33:36;;;;;;;7.53;3.65;;;;;;;;;;1763290;81;21063;-68
2022/07/28 01:36:04;;;;;;;5.35;3.90;;;;;;;;;;1770333;80;21565;-66
2022/07/28 01:38:32;;;;;;;5.33;3.42;;;;;;;;;;1792431;80;21059;-67
2022/07/28 01:41:01;;;;;;;4.22;3.30;;;;;;;;;;1775554;78;21050;-68
2022/07/28 01:43:27;;;;;;;5.95;4.10;;;;;;;;;;1783316;78;21550;-68
2022/07/28 01:45:54;;;;;;;4.50;3.62;;;;;;;;;;1763424;81;21028;-69
2022/07/28 01:48:20;;;;;;;8.88;3.52;;;;;;;;;;1764355;80;21031;-69
2022/07/28 01:50:47;;;;;;;5.05;3.75;;;;;;;;;;1776320;78;21005;-68
2022/07/28 01:53:14;;;;;;;4.65;3.17;;;;;;;;;;1781687;80;20957;-68
2022/07/28 01:55:43;;;;;;;4.80;3.62;;;;;;;;;;1794604;80;21009;-67
2022/07/28 01:58:10;;;;;;;6.03;3.83;;;;;;;;;;1795478;78;21076;-69
2022/07/28 02:00:36;;;;;;;5.60;3.40;;;;;;;;;;1795257;80;21025;-68
2022/07/28 02:03:04;;;;;;;4.42;3.02;;;;;;;;;;1791922;80;21056;-68
2022/07/28 02:05:31;;;;;;;7.65;4.15;;;;;;;;;;1763370;80;21064;-69
2022/07/28 02:07:56;;;;;;;4.47;3.37;;;;;;;;;;1764016;81;21476;-69
2022/07/28 02:10:23;;;;;;;5.37;3.55;;;;;;;;;;1732923;81;21060;-69
2022/07/28 02:12:50;;;;;;;4.87;3.50;;;;;;;;;;1745611;82;21066;-69
2022/07/28 02:15:16;;;;;;;5.17;4.00;;;;;;;;;;1716820;83;21550;-68
2022/07/28 02:17:44;;;;;;;5.15;3.60;;;;;;;;;;1753179;82;21040;-68
2022/07/28 02:20:52;;;;;;;5.05;3.75;;;;;;;;;;1805736;78;24033;-67
2022/07/28 02:23:18;;;;;;;4.83;4.00;;;;;;;;;;1757718;81;21028;-66
2022/07/28 02:25:45;;;;;;;5.22;3.67;;;;;;;;;;1757170;80;21026;-67
2022/07/28 02:28:12;;;;;;;4.42;3.67;;;;;;;;;;1791949;80;21099;-67
2022/07/28 02:30:50;;;;;;;3.98;3.20;;;;;;;;;;1768757;79;21016;-68
2022/07/28 02:33:17;;;;;;;5.17;3.58;;;;;;;;;;1770969;80;21040;-67
2022/07/28 02:35:45;;;;;;;4.67;3.40;;;;;;;;;;1776378;78;21055;-68
2022/07/28 02:38:12;;;;;;;5.10;3.33;;;;;;;;;;1783353;79;21555;-67
2022/07/28 02:40:39;;;;;;;5.17;3.77;;;;;;;;;;1780891;80;21060;-67
2022/07/28 02:43:06;;;;;;;4.67;3.47;;;;;;;;;;1792682;80;21437;-67
2022/07/28 02:45:33;;;;;;;4.45;3.30;;;;;;;;;;1791715;80;21028;-68
2022/07/28 02:48:01;;;;;;;6.22;3.37;;;;;;;;;;1792642;80;21508;-66
2022/07/28 02:50:27;;;;;;;6.05;4.17;;;;;;;;;;1760806;78;21036;-68
2022/07/28 02:52:55;;;;;;;5.62;3.75;;;;;;;;;;1755724;82;21040;-67
2022/07/28 02:55:21;;;;;;;5.50;4.22;;;;;;;;;;1758488;80;21036;-69
2022/07/28 02:57:49;;;;;;;5.78;3.52;;;;;;;;;;1785027;80;21064;-67
2022/07/28 03:00:16;;;;;;;4.62;3.50;;;;;;;;;;1766999;78;21629;-67
2022/07/28 03:02:45;;;;;;;5.58;3.27;;;;;;;;;;1755762;82;21665;-67
2022/07/28 03:05:14;;;;;;;4.80;3.08;;;;;;;;;;1790317;80;20996;-66
2022/07/28 03:07:41;;;;;;;5.45;3.40;;;;;;;;;;1788825;79;21024;-67
2022/07/28 03:10:08;;;;;;;4.78;3.12;;;;;;;;;;1776253;78;21031;-66
2022/07/28 03:12:34;;;;;;;6.15;3.20;;;;;;;;;;1776414;78;21067;-66
2022/07/28 03:15:00;;;;;;;5.33;3.30;;;;;;;;;;1792555;80;21036;-66
2022/07/28 03:17:26;;;;;;;3.92;3.33;;;;;;;;;;1780015;79;21016;-67
2022/07/28 03:19:52;;;;;;;3.87;2.95;;;;;;;;;;1782576;79;21083;-68
2022/07/28 03:22:18;;;;;;;6.03;3.37;;;;;;;;;;1766908;80;21016;-67
2022/07/28 03:24:47;;;;;;;5.05;3.40;;;;;;;;;;1787426;80;22048;-67
2022/07/28 03:27:26;;;;;;;5.28;3.33;;;;;;;;;;1786637;80;21036;-68
2022/07/28 03:29:54;;;;;;;6.62;3.75;;;;;;;;;;1780290;80;21486;-68
2022/07/28 03:32:20;;;;;;;6.10;4.03;;;;;;;;;;1742317;80;21043;-67
2022/07/28 03:34:48;;;;;;;5.03;3.65;;;;;;;;;;1742998;80;21038;-68
2022/07/28 03:37:15;;;;;;;5.85;3.45;;;;;;;;;;1755719;82;21608;-68
2022/07/28 03:39:44;;;;;;;6.72;3.70;;;;;;;;;;1755147;81;21002;-68
2022/07/28 03:42:10;;;;;;;4.53;3.70;;;;;;;;;;1751964;80;20981;-67
2022/07/28 03:44:37;;;;;;;4.20;3.55;;;;;;;;;;1748907;80;21052;-67
2022/07/28 03:47:03;;;;;;;4.33;3.30;;;;;;;;;;1757117;80;21299;-67
2022/07/28 03:49:29;;;;;;;5.80;4.10;;;;;;;;;;1754550;80;21033;-66
2022/07/28 03:51:55;;;;;;;6.58;4.00;;;;;;;;;;1775865;80;21504;-67
2022/07/28 03:54:21;;;;;;;4.40;3.65;;;;;;;;;;1760219;80;21032;-67
2022/07/28 03:56:47;;;;;;;5.85;4.05;;;;;;;;;;1766392;80;20993;-67
2022/07/28 03:59:14;;;;;;;4.65;3.72;;;;;;;;;;1747445;82;21005;-67
2022/07/28 04:01:40;;;;;;;5.25;3.58;;;;;;;;;;1771680;80;21153;-67
2022/07/28 04:04:06;;;;;;;5.20;3.77;;;;;;;;;;1780174;80;21028;-67
2022/07/28 04:06:34;;;;;;;6.95;3.87;;;;;;;;;;1786830;80;21060;-67
2022/07/28 04:09:02;;;;;;;5.97;3.80;;;;;;;;;;1775349;80;21527;-66
2022/07/28 04:11:29;;;;;;;7.35;3.80;;;;;;;;;;1763194;81;21533;-66
2022/07/28 04:13:55;;;;;;;7.62;3.60;;;;;;;;;;1764345;80;21591;-65
2022/07/28 04:16:22;;;;;;;6.15;3.33;;;;;;;;;;1755792;80;20997;-66
2022/07/28 04:18:49;;;;;;;5.78;2.90;;;;;;;;;;1770876;79;21559;-66
2022/07/28 04:21:15;;;;;;;5.45;2.60;;;;;;;;;;1775127;80;21060;-67
2022/07/28 04:23:41;;;;;;;4.97;2.60;;;;;;;;;;1776423;81;21009;-66
2022/07/28 04:26:07;;;;;;;4.12;2.30;;;;;;;;;;1745690;81;21023;-66
2022/07/28 04:28:34;;;;;;;3.95;2.30;;;;;;;;;;1754889;81;21508;-66
2022/07/28 04:31:00;;;;;;;5.47;2.70;;;;;;;;;;1776637;81;21041;-65
2022/07/28 04:33:27;;;;;;;6.12;3.00;;;;;;;;;;1776573;81;21024;-66
2022/07/28 04:35:54;;;;;;;7.25;3.05;;;;;;;;;;1749835;80;21621;-66
2022/07/28 04:38:20;;;;;;;3.55;2.50;;;;;;;;;;1744480;82;21032;-66
2022/07/28 04:40:46;;;;;;;7.47;2.58;;;;;;;;;;1744257;81;21575;-66
2022/07/28 04:43:13;;;;;;;4.87;2.62;;;;;;;;;;1742572;82;21045;-66
2022/07/28 04:45:39;;;;;;;6.47;3.30;;;;;;;;;;1743684;81;21096;-67
2022/07/28 04:48:05;;;;;;;4.08;2.60;;;;;;;;;;1748266;81;21545;-67
2022/07/28 04:50:32;;;;;;;6.25;2.90;;;;;;;;;;1751147;81;21089;-67
2022/07/28 04:52:59;;;;;;;5.08;2.98;;;;;;;;;;1771022;81;20985;-67
2022/07/28 04:55:25;;;;;;;6.35;2.52;;;;;;;;;;1755754;81;21017;-68
2022/07/28 04:57:51;;;;;;;4.47;2.60;;;;;;;;;;1745920;82;20971;-67
2022/07/28 05:00:17;;;;;;;3.80;2.60;;;;;;;;;;1746339;81;21584;-67
2022/07/28 05:02:43;;;;;;;7.15;3.70;;;;;;;;;;1744899;81;21061;-66
2022/07/28 05:05:09;;;;;;;7.25;3.27;;;;;;;;;;1744998;81;21061;-66
2022/07/28 05:07:39;;;;;;;6.22;3.00;;;;;;;;;;1744137;82;21553;-68
2022/07/28 05:10:07;;;;;;;4.85;2.62;;;;;;;;;;1744016;81;20997;-66
2022/07/28 05:12:33;;;;;;;6.25;2.70;;;;;;;;;;1751577;81;21033;-68
2022/07/28 05:14:59;;;;;;;4.62;2.30;;;;;;;;;;1768026;81;21469;-67
2022/07/28 05:17:26;;;;;;;3.33;2.27;;;;;;;;;;1755077;80;21551;-68
2022/07/28 05:19:52;;;;;;;5.80;2.70;;;;;;;;;;1755359;80;21048;-68
2022/07/28 05:22:19;;;;;;;3.45;2.30;;;;;;;;;;1766703;80;21104;-67
2022/07/28 05:24:46;;;;;;;3.67;2.17;;;;;;;;;;1718803;83;21135;-66
2022/07/28 05:27:12;;;;;;;2.80;1.80;;;;;;;;;;1758674;80;21731;-67
2022/07/28 05:29:40;;;;;;;6.97;2.58;;;;;;;;;;1756115;80;21057;-68
2022/07/28 05:32:06;;;;;;;6.15;2.80;;;;;;;;;;1755614;80;21029;-69
2022/07/28 05:34:34;;;;;;;3.92;2.27;;;;;;;;;;1754792;81;21711;-68
2022/07/28 05:37:01;;;;;;;3.47;2.30;;;;;;;;;;1755561;82;21051;-68
2022/07/28 05:39:33;;;;;;;3.83;2.20;;;;;;;;;;1770235;80;21029;-68
2022/07/28 05:42:00;;;;;;;3.37;2.08;;;;;;;;;;1780349;80;21615;-68
2022/07/28 05:44:27;;;;;;;4.45;2.42;;;;;;;;;;1758373;80;21506;-68
2022/07/28 05:46:53;;;;;;;4.67;2.85;;;;;;;;;;1751295;80;21105;-69
2022/07/28 05:49:20;;;;;;;2.98;2.30;;;;;;;;;;1756588;80;21253;-71
2022/07/28 05:51:48;;;;;;;4.12;2.15;;;;;;;;;;1764361;80;21056;-72
2022/07/28 05:54:14;;;;;;;3.83;2.10;;;;;;;;;;1754217;82;21036;-71
2022/07/28 05:56:41;;;;;;;5.08;2.30;;;;;;;;;;1753426;80;21040;-69
2022/07/28 05:59:09;;;;;;;2.20;1.92;;;;;;;;;;1752278;80;21127;-68
2022/07/28 06:01:36;;;;;;;3.85;2.17;;;;;;;;;;1739992;80;21046;-70
2022/07/28 06:04:02;;;;;;;4.20;2.20;;;;;;;;;;1740680;81;21323;-71
2022/07/28 06:06:29;;;;;;;3.17;2.02;;;;;;;;;;1759017;80;21112;-70
2022/07/28 06:08:55;;;;;;;6.55;2.30;;;;;;;;;;1747520;80;21576;-69
2022/07/28 06:11:23;;;;;;;6.90;2.05;;;;;;;;;;1758128;80;21525;-71
2022/07/28 06:13:51;;;;;;;3.52;2.20;;;;;;;;;;1751993;80;21029;-73
2022/07/28 06:16:19;;;;;;;5.67;2.08;;;;;;;;;;1756247;81;22263;-73
2022/07/28 06:18:47;;;;;;;3.02;1.90;;;;;;;;;;1756122;80;21757;-72
2022/07/28 06:21:13;;;;;;;3.33;2.12;;;;;;;;;;1760204;80;21051;-72
2022/07/28 06:23:40;;;;;;;3.77;1.90;;;;;;;;;;1753750;80;21043;-72
2022/07/28 06:26:07;;;;;;;2.75;1.67;;;;;;;;;;1760131;80;21516;-73
2022/07/28 06:28:33;;;;;;;7.35;3.00;;;;;;;;;;1753773;80;21042;-71
2022/07/28 06:30:59;;;;;;;4.70;2.45;;;;;;;;;;1757021;80;21516;-70
2022/07/28 06:33:25;;;;;;;6.30;2.60;;;;;;;;;;1757719;80;21048;-69
2022/07/28 06:35:52;;;;;;;5.20;2.27;;;;;;;;;;1761637;80;21124;-71
2022/07/28 06:38:21;;;;;;;12.55;5.33;;;;;;;;;;1760633;80;21055;-69
2022/07/28 06:40:48;;;;;;;3.85;2.27;;;;;;;;;;1764822;80;21583;-70
2022/07/28 06:43:14;;;;;;;6.70;2.22;;;;;;;;;;1755556;82;21124;-70
2022/07/28 06:45:40;;;;;;;5.53;2.20;;;;;;;;;;1755544;82;21093;-70
2022/07/28 06:48:07;;;;;;;4.25;1.95;;;;;;;;;;1759931;80;21109;-71
2022/07/28 06:50:38;;;;;;;2.98;1.90;;;;;;;;;;1761916;80;21021;-71
2022/07/28 06:53:03;;;;;;;4.60;2.40;;;;;;;;;;1749713;79;21532;-70
2022/07/28 06:55:30;;;;;;;4.70;2.15;;;;;;;;;;1751353;80;21049;-69
2022/07/28 06:57:57;;;;;;;3.58;2.20;;;;;;;;;;1759724;80;21052;-68
2022/07/28 07:00:23;;;;;;;2.77;2.17;;;;;;;;;;1777295;80;21012;-70
2022/07/28 07:02:49;;;;;;;2.77;1.77;;;;;;;;;;1751687;80;21572;-69
2022/07/28 07:05:14;;;;;;;2.80;2.02;;;;;;;;;;1753449;80;20996;-69
2022/07/28 07:07:42;;;;;;;4.35;2.20;;;;;;;;;;1752654;80;21087;-72
2022/07/28 07:10:09;;;;;;;3.72;2.00;;;;;;;;;;1753080;80;21603;-69
2022/07/28 07:12:35;;;;;;;4.03;2.10;;;;;;;;;;1768112;80;21043;-69
2022/07/28 07:15:03;;;;;;;2.95;1.82;;;;;;;;;;1752137;80;21044;-69
2022/07/28 07:17:29;;;;;;;4.55;2.17;;;;;;;;;;1752456;81;21048;-69
2022/07/28 07:19:57;;;;;;;2.67;2.08;;;;;;;;;;1753457;80;21156;-69
2022/07/28 07:22:23;;;;;;;7.50;2.98;;;;;;;;;;1737788;81;20997;-68
2022/07/28 07:24:50;;;;;;;6.03;3.00;;;;;;;;;;1744044;80;21052;-70
2022/07/28 07:27:16;;;;;;;5.00;3.08;;;;;;;;;;1748345;81;21115;-71
2022/07/28 07:29:42;;;;;;;4.95;4.28;;;;;;;;;;1715523;82;21010;-71
2022/07/28 07:32:09;;;;;;;3.83;3.30;;;;;;;;;;1718144;82;21077;-70
2022/07/28 07:34:35;;;;;;;3.27;2.10;;;;;;;;;;1755188;81;21457;-70
2022/07/28 07:37:01;;;;;;;3.17;1.92;;;;;;;;;;1749767;81;21874;-70
2022/07/28 07:39:27;;;;;;;3.98;2.37;;;;;;;;;;1747035;81;21013;-70
2022/07/28 07:41:53;;;;;;;3.87;2.15;;;;;;;;;;1761046;81;21002;-72
2022/07/28 07:44:19;;;;;;;3.52;2.10;;;;;;;;;;1747545;82;21606;-70
2022/07/28 07:46:45;;;;;;;3.40;2.02;;;;;;;;;;1747559;82;20996;-70
2022/07/28 07:49:12;;;;;;;4.95;2.10;;;;;;;;;;1747463;82;21087;-69
2022/07/28 07:51:38;;;;;;;3.25;1.82;;;;;;;;;;1750795;81;21001;-72
2022/07/28 07:54:05;;;;;;;4.12;1.85;;;;;;;;;;1746546;81;21120;-71
2022/07/28 07:56:31;;;;;;;3.87;1.92;;;;;;;;;;1706166;82;21081;-70
2022/07/28 07:58:57;;;;;;;4.50;2.30;;;;;;;;;;1716868;82;21712;-72
2022/07/28 08:01:23;;;;;;;2.65;2.20;;;;;;;;;;1708718;82;21051;-70
2022/07/28 08:03:50;;;;;;;5.45;2.55;;;;;;;;;;1704592;84;21081;-69
2022/07/28 08:06:16;;;;;;;4.33;2.40;;;;;;;;;;1726067;83;21065;-70
2022/07/28 08:08:43;;;;;;;2.27;1.87;;;;;;;;;;1727939;82;21837;-71
2022/07/28 08:11:11;;;;;;;5.45;2.00;;;;;;;;;;1714147;82;21061;-70
2022/07/28 08:13:38;;;;;;;3.65;2.00;;;;;;;;;;1736571;81;21513;-69
2022/07/28 08:16:05;;;;;;;4.80;2.08;;;;;;;;;;1742564;81;21057;-72
2022/07/28 08:18:31;;;;;;;4.50;2.00;;;;;;;;;;1739786;81;21133;-69
2022/07/28 08:20:59;;;;;;;10.10;7.75;;;;;;;;;;1745941;80;21090;-70
2022/07/28 08:23:25;;;;;;;37.48;25.27;;;;;;;;;;1776364;80;21052;-69
2022/07/28 08:25:51;;;;;;;19.77;14.87;;;;;;;;;;1753833;81;21036;-69
2022/07/28 08:28:17;;;;;;;21.05;16.65;;;;;;;;;;1750683;80;20981;-69
2022/07/28 08:30:43;;;;;;;14.63;9.58;;;;;;;;;;1748828;80;21492;-70
2022/07/28 08:33:10;;;;;;;16.57;14.15;;;;;;;;;;1751037;80;22074;-69
2022/07/28 08:35:36;;;;;;;5.20;2.10;;;;;;;;;;1747692;80;21056;-68
2022/07/28 08:38:03;;;;;;;3.65;2.20;;;;;;;;;;1753850;80;21035;-70
2022/07/28 08:40:31;;;;;;;6.05;2.10;;;;;;;;;;1751964;80;20985;-70
2022/07/28 08:42:59;;;;;;;2.98;2.00;;;;;;;;;;1751958;80;21003;-70
2022/07/28 08:45:25;;;;;;;2.70;2.00;;;;;;;;;;1752647;80;21040;-69
2022/07/28 08:47:51;;;;;;;4.78;1.75;;;;;;;;;;1755725;80;22185;-72
2022/07/28 08:50:19;;;;;;;5.70;1.90;;;;;;;;;;1750508;80;21790;-71
2022/07/28 08:52:46;;;;;;;2.35;1.80;;;;;;;;;;1716441;82;20948;-71
2022/07/28 08:55:13;;;;;;;3.15;1.85;;;;;;;;;;1752571;80;21574;-71
2022/07/28 08:57:42;;;;;;;4.00;1.70;;;;;;;;;;1724729;82;21531;-70
2022/07/28 09:00:08;;;;;;;3.42;1.77;;;;;;;;;;1752203;80;21628;-71
2022/07/28 09:02:37;;;;;;;6.87;1.92;;;;;;;;;;1770984;80;21015;-71
2022/07/28 09:05:03;;;;;;;3.60;2.10;;;;;;;;;;1759196;80;20989;-70
2022/07/28 09:07:31;;;;;;;3.90;1.82;;;;;;;;;;1759506;80;20986;-70
2022/07/28 09:09:57;;;;;;;2.37;1.70;;;;;;;;;;1768298;80;20977;-69
2022/07/28 09:12:23;;;;;;;3.65;1.80;;;;;;;;;;1751443;80;21021;-70
2022/07/28 09:14:51;;;;;;;3.67;1.90;;;;;;;;;;1756524;80;21045;-68
2022/07/28 09:17:17;;;;;;;3.20;1.87;;;;;;;;;;1759090;80;21049;-69
2022/07/28 09:19:45;;;;;;;4.15;1.77;;;;;;;;;;1761503;80;21086;-70
2022/07/28 09:22:12;;;;;;;3.05;2.00;;;;;;;;;;1753987;80;21052;-70
2022/07/28 09:24:38;;;;;;;3.95;2.25;;;;;;;;;;1757684;80;21024;-70
2022/07/28 09:27:06;;;;;;;3.05;1.90;;;;;;;;;;1751577;80;21009;-69
2022/07/28 09:29:34;;;;;;;2.90;1.62;;;;;;;;;;1761355;80;21079;-69
2022/07/28 09:32:00;;;;;;;4.62;2.00;;;;;;;;;;1749715;80;21055;-69
2022/07/28 09:34:27;;;;;;;3.27;2.05;;;;;;;;;;1751277;82;21508;-69
2022/07/28 09:36:53;;;;;;;3.42;2.15;;;;;;;;;;1710639;82;21566;-68
2022/07/28 09:39:31;;;;;;;3.45;2.00;;;;;;;;;;1710379;83;21087;-69
2022/07/28 09:41:57;;;;;;;5.37;2.80;;;;;;;;;;1735781;80;21040;-69
2022/07/28 09:44:25;;;;;;;4.20;2.45;;;;;;;;;;1751939;80;20969;-70
2022/07/28 09:46:51;;;;;;;6.35;1.98;;;;;;;;;;1759764;81;21029;-70
2022/07/28 09:49:17;;;;;;;2.65;1.80;;;;;;;;;;1745785;81;21013;-71
2022/07/28 09:51:44;;;;;;;3.72;2.00;;;;;;;;;;1745405;80;21490;-70
2022/07/28 09:54:11;;;;;;;49.15;44.10;;;;;;;;;;1742876;80;21032;-71
2022/07/28 09:56:40;;;;;;;32.28;23.77;;;;;;;;;;1747116;80;21053;-71
2022/07/28 09:59:07;;;;;;;7.42;5.10;;;;;;;;;;1746846;81;21057;-70
2022/07/28 10:01:33;;;;;;;5.42;2.50;;;;;;;;;;1743371;80;21618;-71
2022/07/28 10:04:00;;;;;;;2.52;1.98;;;;;;;;;;1747243;80;21498;-69
2022/07/28 10:06:27;;;;;;;3.95;1.90;;;;;;;;;;1764611;80;21009;-69
2022/07/28 10:08:54;;;;;;;4.92;2.42;;;;;;;;;;1743811;80;21453;-70
2022/07/28 10:11:21;;;;;;;4.62;2.37;;;;;;;;;;1740213;81;20989;-69
2022/07/28 10:13:55;;;;;;;2.25;1.80;;;;;;;;;;1746258;80;21504;-69
2022/07/28 10:16:24;;;;;;;3.42;1.85;;;;;;;;;;1747693;80;21080;-70
2022/07/28 10:18:51;;;;;;;4.95;1.90;;;;;;;;;;1748435;81;21041;-69
2022/07/28 10:21:17;;;;;;;4.05;2.00;;;;;;;;;;1749296;81;21551;-69
2022/07/28 10:23:50;;;;;;;6.22;2.42;;;;;;;;;;1707977;82;21018;-69
2022/07/28 10:26:19;;;;;;;4.15;1.70;;;;;;;;;;1702835;82;21071;-68
2022/07/28 10:28:47;;;;;;;4.20;1.80;;;;;;;;;;1709947;82;21148;-68
2022/07/28 10:31:16;;;;;;;3.20;1.80;;;;;;;;;;1720946;82;21128;-68
2022/07/28 10:33:43;;;;;;;5.15;1.95;;;;;;;;;;1709747;82;21401;-69
2022/07/28 10:36:09;;;;;;;10.68;9.75;;;;;;;;;;1708053;82;21027;-68
2022/07/28 10:38:35;;;;;;;15.80;12.10;;;;;;;;;;1713408;82;21489;-69
2022/07/28 10:41:02;;;;;;;18.42;14.40;;;;;;;;;;1685419;84;21014;-68
2022/07/28 10:43:30;;;;;;;5.42;2.90;;;;;;;;;;1746314;81;21127;-69
2022/07/28 10:46:00;;;;;;;5.20;2.10;;;;;;;;;;1746972;81;21049;-68
2022/07/28 10:48:26;;;;;;;4.03;2.12;;;;;;;;;;1749654;80;21616;-68
2022/07/28 10:50:53;;;;;;;4.25;2.10;;;;;;;;;;1745059;80;21004;-70
2022/07/28 10:53:21;;;;;;;3.10;1.80;;;;;;;;;;1748660;80;21596;-69
2022/07/28 10:55:51;;;;;;;3.35;1.85;;;;;;;;;;1743764;80;21018;-70
2022/07/28 10:58:30;;;;;;;3.62;1.80;;;;;;;;;;1753890;80;21037;-70
2022/07/28 11:00:56;;;;;;;3.35;1.95;;;;;;;;;;1749080;80;21073;-68
2022/07/28 11:03:38;;;;;;;3.75;2.00;;;;;;;;;;1744083;80;21528;-68
2022/07/28 11:06:10;;;;;;;3.47;2.00;;;;;;;;;;1738579;80;21012;-68
2022/07/28 11:08:36;;;;;;;3.02;2.27;;;;;;;;;;1742223;80;21069;-67
2022/07/28 11:11:02;;;;;;;3.35;2.12;;;;;;;;;;1742319;81;20985;-70
2022/07/28 11:13:34;;;;;;;3.05;2.10;;;;;;;;;;1717898;81;21032;-68
2022/07/28 11:16:01;;;;;;;2.90;1.95;;;;;;;;;;1745757;81;21049;-69
2022/07/28 11:18:28;;;;;;;5.92;2.20;;;;;;;;;;1739593;82;21036;-69
2022/07/28 11:20:56;;;;;;;4.20;2.25;;;;;;;;;;1708142;84;21092;-69
2022/07/28 11:23:42;;;;;;;4.97;2.40;;;;;;;;;;1752956;80;21028;-68
2022/07/28 11:26:16;;;;;;;4.00;1.90;;;;;;;;;;1745811;80;21679;-68
2022/07/28 11:29:02;;;;;;;4.37;2.00;;;;;;;;;;1747353;81;21533;-68
2022/07/28 11:31:45;;;;;;;3.72;2.00;;;;;;;;;;1748145;80;21048;-68
2022/07/28 11:34:13;;;;;;;3.87;1.70;;;;;;;;;;1747711;81;21049;-69
2022/07/28 11:37:01;;;;;;;2.77;1.75;;;;;;;;;;1767641;81;21131;-68
2022/07/28 11:39:32;;;;;;;3.17;1.70;;;;;;;;;;1744932;81;21062;-70
2022/07/28 11:41:58;;;;;;;3.70;2.10;;;;;;;;;;1733912;80;20996;-70
2022/07/28 11:44:31;;;;;;;8.33;1.90;;;;;;;;;;1750189;82;21360;-72
2022/07/28 11:47:16;;;;;;;4.62;2.15;;;;;;;;;;1725576;82;21026;-71
2022/07/28 11:49:43;;;;;;;3.65;1.95;;;;;;;;;;1726660;81;21081;-71
2022/07/28 11:52:11;;;;;;;12.50;8.88;;;;;;;;;;1749821;81;21561;-69
2022/07/28 11:54:38;;;;;;;13.95;10.95;;;;;;;;;;1766548;81;21037;-70
2022/07/28 11:57:06;;;;;;;3.62;2.15;;;;;;;;;;1747409;81;21100;-69
2022/07/28 11:59:42;;;;;;;3.20;2.10;;;;;;;;;;1759946;80;21072;-71
2022/07/28 12:02:08;;;;;;;6.17;2.95;;;;;;;;;;1761252;81;20998;-73
2022/07/28 12:04:34;;;;;;;5.67;2.35;;;;;;;;;;1754357;80;21001;-70
2022/07/28 12:07:00;;;;;;;4.72;2.40;;;;;;;;;;1697876;84;20980;-71
2022/07/28 12:09:30;;;;;;;3.75;2.15;;;;;;;;;;1750053;80;21590;-70
2022/07/28 12:11:56;;;;;;;4.10;2.30;;;;;;;;;;1728288;81;21029;-73
2022/07/28 12:14:22;;;;;;;4.85;2.20;;;;;;;;;;1736291;80;20993;-72
2022/07/28 12:16:49;;;;;;;5.67;2.20;;;;;;;;;;1750410;80;21611;-72
2022/07/28 12:19:16;;;;;;;4.28;2.27;;;;;;;;;;1745612;81;21115;-69
2022/07/28 12:21:51;;;;;;;6.92;2.10;;;;;;;;;;1753097;80;21207;-69
2022/07/28 12:24:18;;;;;;;6.33;2.47;;;;;;;;;;1745918;80;21491;-70
2022/07/28 12:26:44;;;;;;;3.72;2.10;;;;;;;;;;1739003;80;21073;-71
2022/07/28 12:29:11;;;;;;;6.00;2.40;;;;;;;;;;1759816;80;21563;-70
2022/07/28 12:31:37;;;;;;;4.95;2.22;;;;;;;;;;1768192;80;21049;-70
2022/07/28 12:34:05;;;;;;;5.10;2.42;;;;;;;;;;1786922;80;21515;-72
2022/07/28 12:36:32;;;;;;;3.65;2.08;;;;;;;;;;1758916;80;20992;-71
2022/07/28 12:39:00;;;;;;;5.15;2.40;;;;;;;;;;1740845;81;21355;-71
2022/07/28 12:41:32;;;;;;;5.37;2.40;;;;;;;;;;1753274;80;21967;-70
2022/07/28 12:43:58;;;;;;;4.70;2.50;;;;;;;;;;1752458;81;21050;-71
2022/07/28 12:46:25;;;;;;;4.55;2.67;;;;;;;;;;1737291;82;20988;-69
2022/07/28 12:48:51;;;;;;;5.42;2.50;;;;;;;;;;1752919;80;21056;-68
2022/07/28 12:51:34;;;;;;;3.65;2.47;;;;;;;;;;1750200;80;21037;-70
2022/07/28 12:54:01;;;;;;;5.83;2.92;;;;;;;;;;1749115;80;21552;-69
2022/07/28 12:56:27;;;;;;;8.00;2.52;;;;;;;;;;1766415;80;21009;-70
2022/07/28 12:59:03;;;;;;;5.15;2.72;;;;;;;;;;1774011;80;21269;-68
2022/07/28 13:01:46;;;;;;;6.42;3.20;;;;;;;;;;1747244;80;20984;-71
2022/07/28 13:04:12;;;;;;;8.10;3.00;;;;;;;;;;1751761;80;21379;-71
2022/07/28 13:06:39;;;;;;;5.25;2.80;;;;;;;;;;1750014;80;21068;-70
2022/07/28 13:09:05;;;;;;;4.08;3.00;;;;;;;;;;1727615;83;21029;-70
2022/07/28 13:11:32;;;;;;;4.83;2.83;;;;;;;;;;1743499;82;20981;-69
2022/07/28 13:13:58;;;;;;;6.05;3.00;;;;;;;;;;1753653;82;21047;-71
2022/07/28 13:16:25;;;;;;;5.85;3.47;;;;;;;;;;1756425;81;21064;-71
2022/07/28 13:18:53;;;;;;;5.47;2.90;;;;;;;;;;1760193;81;21072;-71
2022/07/28 13:21:42;;;;;;;4.67;2.87;;;;;;;;;;1764754;80;21041;-71
2022/07/28 13:24:06;;;;;;;5.83;2.83;;;;;;;;;;1763273;80;21565;-70
2022/07/28 13:26:32;;;;;;;6.10;2.92;;;;;;;;;;1767457;80;21151;-70
2022/07/28 13:29:00;;;;;;;6.35;3.90;;;;;;;;;;1749388;80;21532;-71
2022/07/28 13:31:26;;;;;;;5.53;3.22;;;;;;;;;;1769960;80;21041;-70
2022/07/28 13:33:52;;;;;;;8.35;2.77;;;;;;;;;;1764977;80;21504;-70
2022/07/28 13:36:18;;;;;;;3.70;2.50;;;;;;;;;;1748603;80;21336;-70
2022/07/28 13:38:45;;;;;;;6.33;2.52;;;;;;;;;;1756941;81;21040;-70
2022/07/28 13:41:11;;;;;;;3.60;2.30;;;;;;;;;;1753828;80;20988;-72
2022/07/28 13:43:38;;;;;;;5.35;2.90;;;;;;;;;;1753257;81;21039;-69
2022/07/28 13:46:06;;;;;;;16.67;12.25;;;;;;;;;;1758782;80;21321;-69
2022/07/28 13:48:34;;;;;;;10.65;5.20;;;;;;;;;;1742057;80;21546;-69
2022/07/28 13:50:59;;;;;;;7.03;3.15;;;;;;;;;;1768663;81;21565;-69
2022/07/28 13:53:25;;;;;;;6.28;2.90;;;;;;;;;;1759079;81;21000;-66
2022/07/28 13:55:56;;;;;;;5.17;2.98;;;;;;;;;;1747483;81;21062;-66
2022/07/28 13:58:22;;;;;;;6.80;2.92;;;;;;;;;;1772916;80;21032;-67
2022/07/28 14:00:49;;;;;;;6.10;2.95;;;;;;;;;;1725601;83;21552;-67
2022/07/28 14:03:14;;;;;;;4.53;3.00;;;;;;;;;;1761104;81;21041;-67
2022/07/28 14:05:42;;;;;;;4.53;2.60;;;;;;;;;;1762426;81;21083;-68
2022/07/28 14:08:09;;;;;;;4.10;2.47;;;;;;;;;;1746548;80;21538;-67
2022/07/28 14:10:35;;;;;;;6.87;3.10;;;;;;;;;;1751686;80;20993;-67
2022/07/28 14:13:03;;;;;;;4.92;2.92;;;;;;;;;;1768853;81;21088;-67
2022/07/28 14:15:30;;;;;;;5.75;3.30;;;;;;;;;;1765698;79;21701;-66
2022/07/28 14:17:56;;;;;;;18.48;16.50;;;;;;;;;;1758674;80;21071;-68
2022/07/28 14:20:22;;;;;;;13.65;8.45;;;;;;;;;;1749387;82;21094;-68
2022/07/28 14:22:48;;;;;;;8.63;5.67;;;;;;;;;;1747495;80;21383;-70
2022/07/28 14:25:14;;;;;;;5.92;2.83;;;;;;;;;;1767716;81;21001;-68
2022/07/28 14:27:41;;;;;;;5.62;3.10;;;;;;;;;;1761438;81;21057;-68
2022/07/28 14:30:08;;;;;;;4.05;2.80;;;;;;;;;;1753603;81;20950;-68
2022/07/28 14:32:34;;;;;;;5.58;2.62;;;;;;;;;;1739874;81;21002;-68
2022/07/28 14:38:08;;;;;;;5.03;2.92;;;;;;;;;;1794475;78;22884;-66
2022/07/28 14:40:36;;;;;;;6.65;2.70;;;;;;;;;;1748577;81;21034;-64
2022/07/28 14:43:03;;;;;;;5.15;3.05;;;;;;;;;;1751859;81;21048;-65
2022/07/28 14:45:30;;;;;;;4.67;2.87;;;;;;;;;;1757058;80;22089;-65
2022/07/28 14:47:57;;;;;;;5.37;2.95;;;;;;;;;;1758439;80;21012;-65
2022/07/28 14:50:24;;;;;;;5.72;2.90;;;;;;;;;;1758685;80;21020;-65
2022/07/28 14:52:50;;;;;;;6.65;3.12;;;;;;;;;;1761096;80;21096;-64